Time;durP1;ratioP1;P1;durP2;ratioP2;P2;SDS_P1;SDS_P2;PMS_P1;PMS_P2;Temp;Humidity;BMP_temperature;BMP_pressure;BME280_temperature;BME280_humidity;BME280_pressure;Samples;Min_cycle;Max_cycle;Signal;HPM_P1;HPM_P2
2021/08/05 00:01:57;;;;;;;;;;;;;;;20.77;58.34;100596.19;5160813;27;850;-44
2021/08/05 00:04:23;;;;;;;;;;;;;;;21.26;59.97;100596.56;5160197;27;992;-56
2021/08/05 00:06:48;;;;;;;;;;;;;;;21.30;59.51;100600.34;5160185;27;1982;-54
2021/08/05 00:09:13;;;;;;;;;;;;;;;21.17;57.40;100613.06;5160923;27;799;-55
2021/08/05 00:11:39;;;;;;;;;;;;;;;21.00;55.78;100599.06;5160301;27;778;-42
2021/08/05 00:14:04;;;;;;;;;;;;;;;20.82;54.81;100604.38;5159999;27;779;-55
2021/08/05 00:16:30;;;;;;;;;;;;;;;20.92;53.42;100608.09;5160805;27;793;-54
2021/08/05 00:18:55;;;;;;;;;;;;;;;20.65;53.26;100607.72;5160368;27;885;-57
2021/08/05 00:21:21;;;;;;;;;;;;;;;20.56;52.98;100614.25;5159656;27;1008;-56
2021/08/05 00:23:46;;;;;;;;;;;;;;;20.50;52.56;100621.81;5160601;27;793;-56
2021/08/05 00:26:12;;;;;;;;;;;;;;;20.65;51.98;100618.78;5160513;27;1906;-56
2021/08/05 00:28:37;;;;;;;;;;;;;;;20.81;52.48;100622.09;5160120;27;805;-56
2021/08/05 00:31:04;;;;;;;;;;;;;;;20.85;54.08;100628.63;5142099;27;1117;-43
2021/08/05 00:33:30;;;;;;;;;;;;;;;21.32;56.08;100622.16;5159598;27;806;-41
2021/08/05 00:35:55;;;;;;;;;;;;;;;20.91;58.81;100610.00;5126902;27;1088;-54
2021/08/05 00:38:21;;;;;;;;;;;;;;;20.79;60.44;100624.34;5121571;27;1113;-47
2021/08/05 00:40:46;;;;;;;;;;;;;;;20.60;60.74;100626.34;5121180;27;1100;-55
2021/08/05 00:43:12;;;;;;;;;;;;;;;20.54;59.85;100622.84;5120640;27;1141;-56
2021/08/05 00:45:37;;;;;;;;;;;;;;;20.80;62.79;100616.88;5138904;27;1909;-56
2021/08/05 00:48:05;;;;;;;;;;;;;;;21.33;61.66;100621.03;5120687;27;1353;-56
2021/08/05 00:50:30;;;;;;;;;;;;;;;21.27;62.04;100612.03;5119998;27;1303;-42
2021/08/05 00:52:56;;;;;;;;;;;;;;;21.14;62.70;100610.09;5139117;27;763;-56
2021/08/05 00:55:21;;;;;;;;;;;;;;;21.03;62.47;100613.09;5120731;27;1094;-55
2021/08/05 00:57:47;;;;;;;;;;;;;;;20.56;61.65;100609.53;5138781;27;740;-56
2021/08/05 01:00:12;;;;;;;;;;;;;;;20.71;60.42;100611.25;5120747;27;1215;-56
2021/08/05 01:02:38;;;;;;;;;;;;;;;;;;5139181;27;800;-55
2021/08/05 01:05:03;;;;;;;;;;;;;;;21.50;63.33;100599.09;5119130;27;1938;-51
2021/08/05 01:07:32;;;;;;;;;;;;;;;21.84;61.69;100591.44;5103677;27;2012;-56
2021/08/05 01:10:03;;;;;;;;;;;;;;;21.27;63.53;100591.88;5121365;27;787;-56
2021/08/05 01:12:28;;;;;;;;;;;;;;;;;;5119529;27;840;-55
2021/08/05 01:15:04;;;;;;;;;;;;;;;20.94;61.07;100597.53;5120390;27;1166;-55
2021/08/05 01:17:30;;;;;;;;;;;;;;;21.06;60.60;100584.00;5120547;27;1279;-55
2021/08/05 01:19:59;;;;;;;;;;;;;;;21.53;62.47;100579.13;5119602;27;930;-55
2021/08/05 01:22:39;;;;;;;;;;;;;;;21.97;62.30;100573.94;5119859;27;1217;-55
2021/08/05 01:25:25;;;;;;;;;;;;;;;21.74;62.43;100575.06;5129738;27;1205;-49
2021/08/05 01:27:51;;;;;;;;;;;;;;;21.31;63.84;100565.25;5116252;27;1906;-57
2021/08/05 01:30:16;;;;;;;;;;;;;;;20.96;62.89;100564.88;5140468;27;882;-56
2021/08/05 01:32:42;;;;;;;;;;;;;;;20.73;58.89;100572.25;5159085;27;842;-57
2021/08/05 01:35:08;;;;;;;;;;;;;;;21.54;60.51;100571.66;5139294;27;1071;-57
2021/08/05 01:37:33;;;;;;;;;;;;;;;21.56;62.76;100568.56;5140430;27;1024;-57
2021/08/05 01:39:58;;;;;;;;;;;;;;;21.95;61.60;100564.28;5159077;27;823;-58
2021/08/05 01:42:24;;;;;;;;;;;;;;;21.32;63.45;100564.09;5139974;27;767;-55
2021/08/05 01:44:51;;;;;;;;;;;;;;;;;;5158754;27;759;-56
2021/08/05 01:47:18;;;;;;;;;;;;;;;20.92;62.69;100559.16;5140528;27;1985;-55
2021/08/05 01:49:43;;;;;;;;;;;;;;;20.66;59.53;100553.28;5157794;27;917;-56
2021/08/05 01:52:09;;;;;;;;;;;;;;;20.83;61.57;100552.69;5140503;27;1124;-54
2021/08/05 01:54:35;;;;;;;;;;;;;;;21.22;62.28;100554.06;5140037;27;1303;-50
2021/08/05 01:57:00;;;;;;;;;;;;;;;21.71;61.22;100546.06;5158222;27;794;-55
2021/08/05 01:59:26;;;;;;;;;;;;;;;21.97;59.38;100550.97;5159002;27;819;-47
2021/08/05 02:01:51;;;;;;;;;;;;;;;21.40;60.25;100546.75;5139516;27;1287;-55
2021/08/05 02:04:16;;;;;;;;;;;;;;;20.97;61.21;100547.16;5139729;27;1120;-55
2021/08/05 02:06:53;;;;;;;;;;;;;;;20.90;61.15;100541.22;5158014;27;1913;-56
2021/08/05 02:09:24;;;;;;;;;;;;;;;20.43;59.46;100542.13;5140035;27;743;-56
2021/08/05 02:11:50;;;;;;;;;;;;;;;21.01;60.45;100542.66;5139787;27;798;-56
2021/08/05 02:14:16;;;;;;;;;;;;;;;21.12;60.38;100541.28;5140304;27;1136;-49
2021/08/05 02:16:43;;;;;;;;;;;;;;;21.12;59.89;100538.53;5158262;27;821;-56
2021/08/05 02:19:09;;;;;;;;;;;;;;;21.10;59.72;100535.28;5139924;27;1251;-56
2021/08/05 02:21:34;;;;;;;;;;;;;;;20.74;60.69;100533.25;5157881;27;996;-58
2021/08/05 02:24:00;;;;;;;;;;;;;;;20.72;60.60;100542.97;5158123;27;1082;-57
2021/08/05 02:26:26;;;;;;;;;;;;;;;20.59;58.69;100542.63;5139309;27;1918;-42
2021/08/05 02:28:51;;;;;;;;;;;;;;;20.81;60.78;100538.38;5121385;27;832;-57
2021/08/05 02:31:17;;;;;;;;;;;;;;;21.01;59.70;100537.13;5158055;27;751;-57
2021/08/05 02:33:43;;;;;;;;;;;;;;;21.22;58.96;100529.19;5122304;27;1184;-41
2021/08/05 02:36:08;;;;;;;;;;;;;;;20.93;59.81;100535.06;5146367;27;949;-56
2021/08/05 02:38:34;;;;;;;;;;;;;;;20.61;60.89;100540.41;5125784;27;811;-56
2021/08/05 02:40:59;;;;;;;;;;;;;;;20.36;60.14;100525.16;5143829;27;739;-58
2021/08/05 02:43:26;;;;;;;;;;;;;;;20.54;60.52;100533.63;5109029;27;1262;-46
2021/08/05 02:45:52;;;;;;;;;;;;;;;20.77;60.30;100532.63;5108769;27;1980;-42
2021/08/05 02:48:18;;;;;;;;;;;;;;;20.99;59.49;100539.38;5144028;27;786;-55
2021/08/05 02:50:43;;;;;;;;;;;;;;;21.18;58.73;100531.78;5156288;27;1005;-52
2021/08/05 02:53:10;;;;;;;;;;;;;;;20.93;59.56;100541.44;5146216;27;834;-56
2021/08/05 02:55:35;;;;;;;;;;;;;;;20.68;60.12;100543.59;5164762;27;830;-46
2021/08/05 02:58:01;;;;;;;;;;;;;;;20.47;59.79;100539.59;5129484;27;1393;-56
2021/08/05 03:00:26;;;;;;;;;;;;;;;20.42;61.07;100540.47;5164912;27;739;-54
2021/08/05 03:02:52;;;;;;;;;;;;;;;20.78;59.74;100548.09;5164495;27;766;-48
2021/08/05 03:05:17;;;;;;;;;;;;;;;21.05;58.82;100540.91;5164344;27;1035;-56
2021/08/05 03:07:43;;;;;;;;;;;;;;;21.12;58.66;100538.53;5164271;27;1917;-56
2021/08/05 03:10:09;;;;;;;;;;;;;;;21.06;58.68;100541.75;5164489;27;846;-53
2021/08/05 03:12:34;;;;;;;;;;;;;;;20.65;60.05;100543.34;5164626;27;846;-54
2021/08/05 03:15:00;;;;;;;;;;;;;;;20.51;60.28;100544.19;5164821;27;786;-43
2021/08/05 03:17:25;;;;;;;;;;;;;;;20.13;59.70;100544.34;5164546;27;775;-42
2021/08/05 03:19:50;;;;;;;;;;;;;;;20.39;61.18;100554.91;5163808;27;940;-43
2021/08/05 03:22:16;;;;;;;;;;;;;;;20.78;59.54;100544.53;5164688;27;858;-42
2021/08/05 03:24:41;;;;;;;;;;;;;;;20.96;58.84;100551.88;5164466;27;1149;-43
2021/08/05 03:27:10;;;;;;;;;;;;;;;21.09;58.41;100558.50;5164350;27;1972;-42
2021/08/05 03:29:36;;;;;;;;;;;;;;;20.67;59.72;100549.41;5164655;27;822;-43
2021/08/05 03:32:01;;;;;;;;;;;;;;;20.47;60.12;100545.91;5164101;27;747;-50
2021/08/05 03:34:27;;;;;;;;;;;;;;;20.37;58.28;100546.13;5145439;27;1489;-42
2021/08/05 03:36:52;;;;;;;;;;;;;;;20.54;60.48;100550.19;5164670;27;794;-42
2021/08/05 03:39:17;;;;;;;;;;;;;;;20.91;59.38;100553.94;5164961;27;763;-42
2021/08/05 03:41:43;;;;;;;;;;;;;;;21.02;58.08;100549.81;5163929;27;815;-42
2021/08/05 03:44:08;;;;;;;;;;;;;;;20.76;58.38;100555.06;5164504;27;823;-41
2021/08/05 03:46:34;;;;;;;;;;;;;;;20.37;57.87;100559.09;5163099;27;1996;-56
2021/08/05 03:48:59;;;;;;;;;;;;;;;20.08;56.75;100560.97;5158718;27;1161;-56
2021/08/05 03:51:24;;;;;;;;;;;;;;;19.87;55.17;100554.19;5159623;27;948;-47
2021/08/05 03:53:50;;;;;;;;;;;;;;;19.85;54.65;100561.94;5161083;27;850;-44
2021/08/05 03:56:15;;;;;;;;;;;;;;;20.32;55.52;100563.59;5160957;27;759;-42
2021/08/05 03:58:41;;;;;;;;;;;;;;;20.65;57.06;100552.47;5160610;27;751;-43
2021/08/05 04:01:06;;;;;;;;;;;;;;;20.82;58.01;100557.41;5160818;27;747;-43
2021/08/05 04:03:31;;;;;;;;;;;;;;;20.99;58.73;100555.97;5160445;27;794;-59
2021/08/05 04:05:57;;;;;;;;;;;;;;;20.79;60.14;100558.03;5160241;27;1909;-42
2021/08/05 04:08:22;;;;;;;;;;;;;;;20.73;61.31;100550.16;5160620;27;882;-42
2021/08/05 04:10:48;;;;;;;;;;;;;;;20.52;60.54;100547.75;5160158;27;891;-42
2021/08/05 04:13:13;;;;;;;;;;;;;;;20.55;62.00;100549.09;5160753;27;735;-42
2021/08/05 04:15:40;;;;;;;;;;;;;;;21.17;61.25;100546.72;5160916;27;762;-42
2021/08/05 04:18:06;;;;;;;;;;;;;;;21.52;60.43;100554.56;5160249;27;814;-42
2021/08/05 04:20:31;;;;;;;;;;;;;;;21.18;61.16;100547.53;5160318;27;996;-54
2021/08/05 04:22:57;;;;;;;;;;;;;;;20.74;61.51;100543.50;5160500;27;850;-55
2021/08/05 04:25:22;;;;;;;;;;;;;;;20.68;58.91;100545.56;5160028;27;1095;-42
2021/08/05 04:27:48;;;;;;;;;;;;;;;20.31;59.11;100550.06;5160295;27;1917;-41
2021/08/05 04:30:13;;;;;;;;;;;;;;;20.51;57.00;100546.94;5160298;27;751;-41
2021/08/05 04:32:39;;;;;;;;;;;;;;;20.62;56.66;100536.50;5159952;27;819;-42
2021/08/05 04:35:05;;;;;;;;;;;;;;;20.82;56.61;100535.31;5160050;27;996;-53
2021/08/05 04:37:30;;;;;;;;;;;;;;;21.11;56.65;100530.53;5160121;27;762;-57
2021/08/05 04:39:56;;;;;;;;;;;;;;;21.15;57.47;100529.63;5159867;27;803;-43
2021/08/05 04:42:22;;;;;;;;;;;;;;;20.85;58.52;100531.91;5160190;27;814;-42
2021/08/05 04:44:47;;;;;;;;;;;;;;;20.73;59.84;100537.13;5160002;27;802;-41
2021/08/05 04:47:16;;;;;;;;;;;;;;;20.55;59.44;100527.78;5160004;27;1913;-55
2021/08/05 04:49:41;;;;;;;;;;;;;;;20.32;60.23;100526.88;5159250;27;1081;-56
2021/08/05 04:52:07;;;;;;;;;;;;;;;20.90;60.08;100525.47;5159765;27;858;-54
2021/08/05 04:54:34;;;;;;;;;;;;;;;21.18;59.09;100520.72;5158221;27;1077;-41
2021/08/05 04:56:59;;;;;;;;;;;;;;;;;;5160121;27;1154;-42
2021/08/05 04:59:25;;;;;;;;;;;;;;;20.83;60.77;100525.06;5158905;27;806;-56
2021/08/05 05:01:50;;;;;;;;;;;;;;;20.80;60.55;100514.63;5159432;27;771;-41
2021/08/05 05:04:16;;;;;;;;;;;;;;;20.58;59.39;100505.09;5159706;27;1017;-52
2021/08/05 05:06:41;;;;;;;;;;;;;;;20.85;61.16;100511.75;5159091;27;1982;-42
2021/08/05 05:09:06;;;;;;;;;;;;;;;21.08;60.46;100504.34;5159315;27;752;-45
2021/08/05 05:11:32;;;;;;;;;;;;;;;21.09;61.25;100500.44;5159363;27;822;-41
2021/08/05 05:13:57;;;;;;;;;;;;;;;20.92;61.80;100494.78;5159753;27;787;-57
2021/08/05 05:16:23;;;;;;;;;;;;;;;20.81;61.49;100500.50;5158830;27;814;-56
2021/08/05 05:18:48;;;;;;;;;;;;;;;20.57;60.14;100499.88;5159133;27;763;-43
2021/08/05 05:21:14;;;;;;;;;;;;;;;20.88;61.69;100502.03;5159094;27;985;-42
2021/08/05 05:23:39;;;;;;;;;;;;;;;21.33;60.36;100511.22;5158948;27;775;-43
2021/08/05 05:26:05;;;;;;;;;;;;;;;21.53;59.69;100509.97;5159174;27;1980;-52
2021/08/05 05:28:30;;;;;;;;;;;;;;;21.11;61.16;100506.50;5140466;27;816;-57
2021/08/05 05:30:56;;;;;;;;;;;;;;;21.10;61.30;100502.09;5158671;27;795;-43
2021/08/05 05:33:22;;;;;;;;;;;;;;;20.78;59.52;100506.66;5159113;27;835;-60
2021/08/05 05:35:47;;;;;;;;;;;;;;;20.70;59.96;100501.84;5145423;27;1005;-57
2021/08/05 05:38:12;;;;;;;;;;;;;;;21.32;60.87;100503.25;5138725;27;818;-60
2021/08/05 05:40:38;;;;;;;;;;;;;;;21.80;59.61;100505.44;5137765;27;823;-45
2021/08/05 05:43:04;;;;;;;;;;;;;;;22.04;58.63;100501.50;5137984;27;775;-57
2021/08/05 05:45:30;;;;;;;;;;;;;;;22.11;58.23;100496.31;5137834;27;866;-56
2021/08/05 05:47:55;;;;;;;;;;;;;;;21.33;60.80;100497.41;5137967;27;1994;-52
2021/08/05 05:50:21;;;;;;;;;;;;;;;21.18;61.39;100500.53;5137351;27;942;-44
2021/08/05 05:52:47;;;;;;;;;;;;;;;20.75;60.71;100498.16;5137812;27;826;-48
2021/08/05 05:55:12;;;;;;;;;;;;;;;20.45;59.46;100487.38;5137932;27;865;-56
2021/08/05 05:57:38;;;;;;;;;;;;;;;21.53;60.53;100485.06;5138275;27;727;-42
2021/08/05 06:00:04;;;;;;;;;;;;;;;21.63;60.68;100492.31;5137479;27;763;-57
2021/08/05 06:02:37;;;;;;;;;;;;;;;21.53;60.82;100487.84;5137542;27;624;-57
2021/08/05 06:05:02;;;;;;;;;;;;;;;21.19;61.91;100480.03;5137298;27;1136;-56
2021/08/05 06:07:28;;;;;;;;;;;;;;;21.16;62.02;100486.19;5136873;27;1914;-44
2021/08/05 06:09:53;;;;;;;;;;;;;;;20.84;60.49;100476.97;5136530;27;823;-42
2021/08/05 06:12:18;;;;;;;;;;;;;;;21.01;60.13;100490.13;5137750;27;779;-42
2021/08/05 06:14:44;;;;;;;;;;;;;;;21.65;60.80;100483.69;5137676;27;945;-42
2021/08/05 06:17:09;;;;;;;;;;;;;;;21.73;60.54;100488.47;5137229;27;861;-48
2021/08/05 06:19:35;;;;;;;;;;;;;;;21.48;61.16;100485.16;5136682;27;957;-44
2021/08/05 06:22:00;;;;;;;;;;;;;;;21.11;62.63;100481.63;5137488;27;506;-43
2021/08/05 06:24:26;;;;;;;;;;;;;;;20.99;61.93;100484.09;5142124;27;1200;-43
2021/08/05 06:26:51;;;;;;;;;;;;;;;20.58;59.41;100476.66;5158223;27;1909;-43
2021/08/05 06:29:17;;;;;;;;;;;;;;;21.04;60.40;100470.16;5157979;27;807;-43
2021/08/05 06:31:42;;;;;;;;;;;;;;;21.54;61.36;100474.81;5157561;27;783;-57
2021/08/05 06:34:08;;;;;;;;;;;;;;;21.61;61.53;100482.69;5158779;27;846;-56
2021/08/05 06:36:38;;;;;;;;;;;;;;;21.52;61.37;100477.91;5157790;27;965;-48
2021/08/05 06:39:04;;;;;;;;;;;;;;;21.22;62.67;100476.66;5158039;27;842;-42
2021/08/05 06:41:29;;;;;;;;;;;;;;;21.18;61.99;100476.47;5157974;27;799;-60
2021/08/05 06:43:55;;;;;;;;;;;;;;;20.75;59.18;100476.88;5139663;27;1104;-42
2021/08/05 06:46:22;;;;;;;;;;;;;;;21.11;59.87;100476.09;5157957;27;1980;-56
2021/08/05 06:48:47;;;;;;;;;;;;;;;21.69;60.58;100473.63;5158202;27;731;-43
2021/08/05 06:51:13;;;;;;;;;;;;;;;21.70;60.45;100469.72;5157342;27;953;-56
2021/08/05 06:53:38;;;;;;;;;;;;;;;21.79;59.21;100478.88;5157674;27;787;-57
2021/08/05 06:56:04;;;;;;;;;;;;;;;21.27;60.03;100473.78;5158306;27;788;-57
2021/08/05 06:58:29;;;;;;;;;;;;;;;21.14;60.23;100458.88;5157430;27;783;-43
2021/08/05 07:00:55;;;;;;;;;;;;;;;20.91;59.20;100459.97;5157403;27;850;-55
2021/08/05 07:03:20;;;;;;;;;;;;;;;20.82;58.84;100462.66;5157955;27;799;-56
2021/08/05 07:05:45;;;;;;;;;;;;;;;21.23;59.63;100464.47;5157359;27;1144;-47
2021/08/05 07:08:11;;;;;;;;;;;;;;;21.35;58.84;100458.41;5157441;27;1984;-42
2021/08/05 07:10:36;;;;;;;;;;;;;;;21.44;58.30;100464.78;5157397;27;847;-43
2021/08/05 07:13:03;;;;;;;;;;;;;;;20.98;59.37;100457.59;5157570;27;957;-58
2021/08/05 07:15:28;;;;;;;;;;;;;;;20.99;59.37;100459.22;5157456;27;992;-58
2021/08/05 07:17:54;;;;;;;;;;;;;;;20.66;57.99;100451.06;5157793;27;861;-59
2021/08/05 07:20:19;;;;;;;;;;;;;;;20.52;60.05;100460.19;5157186;27;933;-58
2021/08/05 07:22:45;;;;;;;;;;;;;;;21.05;59.58;100460.72;5160441;27;815;-48
2021/08/05 07:25:11;;;;;;;;;;;;;;;21.33;58.17;100452.34;5161527;27;1078;-58
2021/08/05 07:27:37;;;;;;;;;;;;;;;21.16;58.76;100444.72;5161790;27;1897;-42
2021/08/05 07:30:03;;;;;;;;;;;;;;;20.97;59.12;100451.25;5161189;27;858;-58
2021/08/05 07:32:28;;;;;;;;;;;;;;;20.81;59.29;100445.22;5161757;27;788;-57
2021/08/05 07:34:53;;;;;;;;;;;;;;;20.30;57.70;100446.28;5155445;27;985;-54
2021/08/05 07:37:19;;;;;;;;;;;;;;;21.02;59.04;100436.47;5140420;27;830;-42
2021/08/05 07:39:44;;;;;;;;;;;;;;;21.26;58.89;100441.72;5140513;27;854;-47
2021/08/05 07:42:10;;;;;;;;;;;;;;;21.34;58.04;100438.19;5140193;27;819;-59
2021/08/05 07:44:35;;;;;;;;;;;;;;;21.46;57.68;100440.41;5140195;27;873;-52
2021/08/05 07:47:01;;;;;;;;;;;;;;;21.02;58.73;100429.00;5140286;27;1913;-58
2021/08/05 07:49:27;;;;;;;;;;;;;;;20.85;59.59;100435.19;5139903;27;934;-43
2021/08/05 07:51:52;;;;;;;;;;;;;;;20.73;58.35;100425.81;5140119;27;763;-61
2021/08/05 07:54:18;;;;;;;;;;;;;;;20.85;58.69;100429.66;5140115;27;811;-51
2021/08/05 07:56:43;;;;;;;;;;;;;;;21.50;58.15;100429.50;5140279;27;846;-59
2021/08/05 07:59:08;;;;;;;;;;;;;;;21.61;58.01;100427.34;5140009;27;751;-55
2021/08/05 08:01:34;;;;;;;;;;;;;;;21.19;59.32;100421.97;5139760;27;767;-57
2021/08/05 08:03:59;;;;;;;;;;;;;;;20.97;60.41;100431.06;5140218;27;771;-58
2021/08/05 08:06:25;;;;;;;;;;;;;;;20.78;59.85;100428.47;5138882;27;1984;-57
2021/08/05 08:08:51;;;;;;;;;;;;;;;20.51;57.91;100414.38;5140252;27;733;-43
2021/08/05 08:11:22;;;;;;;;;;;;;;;21.43;59.40;100416.13;5140059;27;851;-43
2021/08/05 08:13:48;;;;;;;;;;;;;;;21.67;58.93;100420.53;5139821;27;783;-50
2021/08/05 08:16:13;;;;;;;;;;;;;;;21.82;58.08;100425.66;5139657;27;827;-57
2021/08/05 08:18:39;;;;;;;;;;;;;;;21.08;60.38;100426.94;5139791;27;743;-42
2021/08/05 08:21:05;;;;;;;;;;;;;;;20.92;60.95;100426.47;5138648;27;1117;-60
2021/08/05 08:23:30;;;;;;;;;;;;;;;20.64;58.86;100420.97;5139569;27;767;-59
2021/08/05 08:25:55;;;;;;;;;;;;;;;21.07;60.17;100417.03;5157289;27;1909;-48
2021/08/05 08:28:21;;;;;;;;;;;;;;;21.23;60.19;100411.13;5159636;27;766;-58
2021/08/05 08:30:46;;;;;;;;;;;;;;;21.63;58.83;100419.53;5160373;27;799;-53
2021/08/05 08:33:15;;;;;;;;;;;;;;;21.09;60.25;100411.19;5159634;27;789;-45
2021/08/05 08:35:40;;;;;;;;;;;;;;;21.03;60.67;100407.72;5159558;27;964;-57
2021/08/05 08:38:07;;;;;;;;;;;;;;;20.81;59.70;100416.78;5160199;27;732;-45
2021/08/05 08:40:32;;;;;;;;;;;;;;;20.44;57.77;100402.91;5160094;27;763;-59
2021/08/05 08:42:58;;;;;;;;;;;;;;;21.29;59.69;100401.56;5159475;27;767;-57
2021/08/05 08:45:23;;;;;;;;;;;;;;;21.50;59.72;100411.00;5160052;27;802;-57
2021/08/05 08:47:51;;;;;;;;;;;;;;;21.66;59.07;100418.91;5160056;27;1909;-42
2021/08/05 08:50:16;;;;;;;;;;;;;;;21.24;60.16;100413.56;5159095;27;969;-57
2021/08/05 08:52:43;;;;;;;;;;;;;;;21.09;60.68;100411.97;5140438;27;855;-53
2021/08/05 08:55:09;;;;;;;;;;;;;;;20.92;59.51;100401.59;5160017;27;723;-57
2021/08/05 08:57:34;;;;;;;;;;;;;;;20.52;58.51;100404.13;5159584;27;811;-57
2021/08/05 09:00:01;;;;;;;;;;;;;;;21.35;60.05;100401.13;5159675;27;731;-58
2021/08/05 09:02:26;;;;;;;;;;;;;;;21.65;59.42;100407.00;5141250;27;812;-41
2021/08/05 09:04:52;;;;;;;;;;;;;;;21.81;58.75;100410.22;5159177;27;1024;-56
2021/08/05 09:07:17;;;;;;;;;;;;;;;21.17;60.38;100419.53;5158756;27;1992;-41
2021/08/05 09:09:43;;;;;;;;;;;;;;;21.11;60.74;100406.97;5159361;27;831;-57
2021/08/05 09:12:13;;;;;;;;;;;;;;;20.79;59.77;100410.75;5159525;27;838;-56
2021/08/05 09:14:43;;;;;;;;;;;;;;;20.41;58.68;100403.53;5141842;27;815;-42
2021/08/05 09:17:22;;;;;;;;;;;;;;;20.98;61.29;100405.06;5159960;27;827;-41
2021/08/05 09:19:50;;;;;;;;;;;;;;;21.33;60.97;100405.31;5158316;27;945;-52
2021/08/05 09:22:31;;;;;;;;;;;;;;;21.40;60.28;100388.28;5159093;27;750;-44
2021/08/05 09:24:56;;;;;;;;;;;;;;;21.09;61.14;100386.28;5159061;27;1105;-54
2021/08/05 09:27:31;;;;;;;;;;;;;;;21.16;60.91;100379.19;5158770;27;1905;-60
2021/08/05 09:29:57;;;;;;;;;;;;;;;20.78;59.46;100376.78;5159185;27;847;-57
2021/08/05 09:32:27;;;;;;;;;;;;;;;21.11;60.08;100375.72;5158678;27;679;-45
2021/08/05 09:34:52;;;;;;;;;;;;;;;21.72;59.59;100367.81;5153108;27;1008;-47
2021/08/05 09:37:19;;;;;;;;;;;;;;;22.08;58.11;100369.59;5120014;27;1392;-42
2021/08/05 09:39:45;;;;;;;;;;;;;;;21.40;59.93;100366.97;5138191;27;829;-54
2021/08/05 09:42:12;;;;;;;;;;;;;;;21.19;60.74;100353.66;5137759;27;774;-43
2021/08/05 09:44:37;;;;;;;;;;;;;;;20.99;60.14;100357.75;5137676;27;806;-56
2021/08/05 09:47:09;;;;;;;;;;;;;;;20.68;58.05;100349.41;5137932;27;1966;-59
2021/08/05 09:49:35;;;;;;;;;;;;;;;21.19;59.55;100350.91;5137963;27;993;-51
2021/08/05 09:52:01;;;;;;;;;;;;;;;21.40;60.72;100344.84;5138015;27;739;-43
2021/08/05 09:54:36;;;;;;;;;;;;;;;21.59;59.88;100341.91;5137517;27;834;-42
2021/08/05 09:57:01;;;;;;;;;;;;;;;21.25;60.57;100345.25;5118990;27;775;-42
2021/08/05 09:59:27;;;;;;;;;;;;;;;21.06;61.14;100332.44;5137897;27;882;-58
2021/08/05 10:01:59;;;;;;;;;;;;;;;20.94;60.17;100332.19;5137709;27;850;-57
2021/08/05 10:04:26;;;;;;;;;;;;;;;20.48;58.57;100334.88;5138356;27;961;-55
2021/08/05 10:06:55;;;;;;;;;;;;;;;21.19;60.54;100334.31;5158333;27;1972;-42
2021/08/05 10:09:20;;;;;;;;;;;;;;;21.41;60.39;100343.72;5158493;27;782;-58
2021/08/05 10:11:46;;;;;;;;;;;;;;;21.57;59.77;100329.50;5158283;27;755;-46
2021/08/05 10:14:21;;;;;;;;;;;;;;;21.07;61.20;100331.31;5158751;27;759;-59
2021/08/05 10:16:47;;;;;;;;;;;;;;;21.12;60.93;100314.59;5158818;27;792;-42
2021/08/05 10:19:12;;;;;;;;;;;;;;;20.84;59.07;100317.47;5158105;27;792;-56
2021/08/05 10:21:38;;;;;;;;;;;;;;;20.78;59.30;100317.94;5139946;27;1036;-56
2021/08/05 10:24:04;;;;;;;;;;;;;;;21.25;60.87;100321.19;5157710;27;1118;-41
2021/08/05 10:26:29;;;;;;;;;;;;;;;21.57;60.07;100310.13;5157791;27;1913;-58
2021/08/05 10:28:55;;;;;;;;;;;;;;;21.34;60.42;100312.94;5158598;27;731;-55
2021/08/05 10:31:21;;;;;;;;;;;;;;;21.07;61.25;100311.13;5158127;27;822;-43
2021/08/05 10:33:46;;;;;;;;;;;;;;;21.07;60.21;100316.66;5139098;27;906;-55
2021/08/05 10:36:12;;;;;;;;;;;;;;;20.46;58.36;100309.50;5121352;28;1109;-42
2021/08/05 10:38:37;;;;;;;;;;;;;;;21.04;59.70;100304.28;5137437;28;768;-41
2021/08/05 10:41:02;;;;;;;;;;;;;;;21.45;60.53;100308.75;5137382;28;815;-58
2021/08/05 10:43:28;;;;;;;;;;;;;;;21.74;59.61;100301.94;5136941;28;870;-56
2021/08/05 10:45:53;;;;;;;;;;;;;;;21.76;59.34;100296.88;5137470;28;826;-56
2021/08/05 10:48:20;;;;;;;;;;;;;;;21.15;60.86;100288.25;5119023;28;1909;-55
2021/08/05 10:50:46;;;;;;;;;;;;;;;21.07;61.44;100300.91;5118006;28;1364;-55
2021/08/05 10:53:30;;;;;;;;;;;;;;;20.63;59.36;100291.47;5137345;28;826;-56
2021/08/05 10:56:15;;;;;;;;;;;;;;;21.07;60.52;100289.03;5137412;27;743;-46
2021/08/05 10:58:44;;;;;;;;;;;;;;;21.53;60.40;100288.66;5141872;27;767;-55
2021/08/05 11:01:09;;;;;;;;;;;;;;;21.71;59.36;100283.16;5122798;27;1333;-55
2021/08/05 11:03:41;;;;;;;;;;;;;;;21.12;61.23;100284.19;5140651;27;803;-53
2021/08/05 11:06:21;;;;;;;;;;;;;;;21.11;61.15;100277.03;5140717;27;1905;-42
2021/08/05 11:08:46;;;;;;;;;;;;;;;20.76;59.53;100279.56;5141174;27;744;-42
2021/08/05 11:11:22;;;;;;;;;;;;;;;20.89;59.23;100275.09;5140500;27;739;-55
2021/08/05 11:14:07;;;;;;;;;;;;;;;21.23;61.23;100272.88;5140824;27;856;-43
2021/08/05 11:16:48;;;;;;;;;;;;;;;21.69;59.61;100263.31;5140475;27;1577;-57
2021/08/05 11:19:23;;;;;;;;;;;;;;;21.33;60.47;100259.56;5140765;27;727;-56
2021/08/05 11:21:49;;;;;;;;;;;;;;;21.15;61.15;100264.22;5140916;27;783;-41
2021/08/05 11:24:32;;;;;;;;;;;;;;;21.02;59.81;100254.03;5144386;27;1174;-42
2021/08/05 11:27:16;;;;;;;;;;;;;;;20.59;58.13;100252.59;5160910;27;1890;-50
2021/08/05 11:29:42;;;;;;;;;;;;;;;21.40;60.44;100256.34;5161660;27;837;-52
2021/08/05 11:32:22;;;;;;;;;;;;;;;21.69;59.90;100246.72;5161426;27;758;-54
2021/08/05 11:34:54;;;;;;;;;;;;;;;21.49;60.10;100254.44;5160545;27;1012;-54
2021/08/05 11:37:21;;;;;;;;;;;;;;;21.09;61.37;100256.38;5161373;27;713;-54
2021/08/05 11:39:50;;;;;;;;;;;;;;;21.16;60.53;100246.47;5142461;27;850;-41
2021/08/05 11:42:17;;;;;;;;;;;;;;;20.75;58.79;100239.25;5160945;27;830;-41
2021/08/05 11:44:51;;;;;;;;;;;;;;;20.85;59.81;100233.47;5161082;27;801;-54
2021/08/05 11:47:19;;;;;;;;;;;;;;;21.65;60.41;100229.94;5161343;27;1972;-49
2021/08/05 11:49:44;;;;;;;;;;;;;;;21.70;59.91;100221.50;5160548;27;1004;-52
2021/08/05 11:52:10;;;;;;;;;;;;;;;21.57;59.93;100216.09;5161184;27;806;-41
2021/08/05 11:54:36;;;;;;;;;;;;;;;21.12;61.24;100217.81;5160356;27;739;-47
2021/08/05 11:57:05;;;;;;;;;;;;;;;21.10;61.09;100213.78;5161016;27;842;-52
2021/08/05 11:59:31;;;;;;;;;;;;;;;20.64;58.86;100219.31;5160960;27;734;-51
2021/08/05 12:02:04;;;;;;;;;;;;;;;20.98;60.78;100211.59;5160843;27;758;-41
2021/08/05 12:04:29;;;;;;;;;;;;;;;21.60;60.19;100205.19;5160039;27;1080;-53
2021/08/05 12:07:13;;;;;;;;;;;;;;;21.82;59.19;100204.25;5160091;27;1921;-55
2021/08/05 12:09:38;;;;;;;;;;;;;;;21.36;60.51;100200.88;5160515;27;498;-42
2021/08/05 12:12:04;;;;;;;;;;;;;;;21.26;61.39;100200.34;5160218;27;806;-68
2021/08/05 12:14:30;;;;;;;;;;;;;;;20.85;60.78;100202.25;5160487;27;803;-56
2021/08/05 12:16:55;;;;;;;;;;;;;;;20.40;58.58;100188.44;5160432;27;826;-55
2021/08/05 12:19:20;;;;;;;;;;;;;;;21.02;58.94;100187.72;5159810;27;989;-58
2021/08/05 12:21:46;;;;;;;;;;;;;;;21.16;61.60;100182.88;5159953;27;984;-43
2021/08/05 12:24:12;;;;;;;;;;;;;;;21.24;62.76;100188.75;5142281;27;1181;-56
2021/08/05 12:26:37;;;;;;;;;;;;;;;21.35;62.47;100187.38;5160122;27;1917;-57
2021/08/05 12:29:09;;;;;;;;;;;;;;;21.03;63.08;100183.81;5141764;27;814;-56
2021/08/05 12:31:35;;;;;;;;;;;;;;;21.08;62.25;100189.19;5160305;27;828;-51
2021/08/05 12:34:00;;;;;;;;;;;;;;;20.61;60.55;100186.00;5160044;27;767;-44
2021/08/05 12:36:26;;;;;;;;;;;;;;;20.99;60.59;100193.88;5159430;27;1020;-49
2021/08/05 12:38:56;;;;;;;;;;;;;;;21.66;60.68;100187.31;5160662;27;862;-55
2021/08/05 12:41:28;;;;;;;;;;;;;;;21.84;59.57;100179.84;5159766;27;803;-56
2021/08/05 12:44:01;;;;;;;;;;;;;;;21.47;60.42;100184.78;5140642;27;855;-56
2021/08/05 12:46:28;;;;;;;;;;;;;;;21.17;61.21;100178.19;5159778;27;1910;-41
2021/08/05 12:48:55;;;;;;;;;;;;;;;20.87;60.48;100174.31;5141160;27;770;-53
2021/08/05 12:51:56;;;;;;;;;;;;;;;20.49;62.26;100178.28;5146590;27;628;-49
2021/08/05 12:54:57;;;;;;;;;;;;;;;21.50;61.50;100167.56;5159448;27;648;-56